Terminal Aerodrome Forecast
Issued by NWS

Home | Current Version | Previous Version | Text Only | Print | Product List | Glossary On
Versions: 1 2 3 4 5 6 7 8 9 10 11 12 13 14
000
FTUS44 KCRP 301742
TAFALI
TAF
KALI 301742Z 3018/3118 10008KT P6SM VCTS SCT025CB BKN040
      TEMPO 3020/3024 VRB20G30KT 2SM TSRA BKN025CB
     FM310200 10005KT P6SM VCTS SCT025CB
      TEMPO 3102/3105 3SM TSRA BKN025CB
     FM310600 09004KT 5SM BR BKN015
      TEMPO 3110/3114 2SM BR OVC012
     FM311500 09007KT P6SM VCSH BKN025 PROB30 3116/3118 3SM TSRA
      OVC020CB=

USA.gov is the U.S. government's official web portal to all federal, state and local government web resources and services.